sensor_id;sensor_type;location;lat;lon;timestamp;P1;durP1;ratioP1;P2;durP2;ratioP2
74535;SDS011;63013;51.104;-115.370;2022-09-01T00:00:12;3.80;;;1.50;;
74535;SDS011;63013;51.104;-115.370;2022-09-01T00:02:40;1.80;;;1.40;;
74535;SDS011;63013;51.104;-115.370;2022-09-01T00:05:08;2.00;;;1.30;;
74535;SDS011;63013;51.104;-115.370;2022-09-01T00:07:35;1.50;;;1.30;;
74535;SDS011;63013;51.104;-115.370;2022-09-01T00:10:05;1.70;;;1.60;;
74535;SDS011;63013;51.104;-115.370;2022-09-01T00:12:37;2.80;;;1.80;;
74535;SDS011;63013;51.104;-115.370;2022-09-01T00:15:09;2.30;;;1.70;;
74535;SDS011;63013;51.104;-115.370;2022-09-01T00:17:38;2.00;;;1.70;;
74535;SDS011;63013;51.104;-115.370;2022-09-01T00:20:06;1.80;;;1.50;;
74535;SDS011;63013;51.104;-115.370;2022-09-01T00:22:34;1.80;;;1.60;;
74535;SDS011;63013;51.104;-115.370;2022-09-01T00:25:02;2.00;;;1.70;;
74535;SDS011;63013;51.104;-115.370;2022-09-01T00:27:34;1.90;;;1.70;;
74535;SDS011;63013;51.104;-115.370;2022-09-01T00:30:23;1.70;;;1.60;;
74535;SDS011;63013;51.104;-115.370;2022-09-01T00:33:01;2.50;;;1.60;;
74535;SDS011;63013;51.104;-115.370;2022-09-01T00:35:28;2.90;;;1.80;;
74535;SDS011;63013;51.104;-115.370;2022-09-01T00:38:25;3.60;;;1.80;;
74535;SDS011;63013;51.104;-115.370;2022-09-01T00:40:52;1.60;;;1.50;;
74535;SDS011;63013;51.104;-115.370;2022-09-01T00:46:18;2.20;;;1.50;;
74535;SDS011;63013;51.104;-115.370;2022-09-01T00:48:55;2.20;;;1.60;;
74535;SDS011;63013;51.104;-115.370;2022-09-01T00:51:27;2.30;;;1.70;;
74535;SDS011;63013;51.104;-115.370;2022-09-01T00:54:00;2.00;;;1.80;;
74535;SDS011;63013;51.104;-115.370;2022-09-01T00:56:28;1.90;;;1.70;;
74535;SDS011;63013;51.104;-115.370;2022-09-01T00:59:02;3.90;;;1.70;;
74535;SDS011;63013;51.104;-115.370;2022-09-01T01:01:32;2.00;;;1.80;;
74535;SDS011;63013;51.104;-115.370;2022-09-01T01:04:03;1.80;;;1.70;;
74535;SDS011;63013;51.104;-115.370;2022-09-01T01:06:53;2.10;;;1.80;;
74535;SDS011;63013;51.104;-115.370;2022-09-01T01:09:33;1.80;;;1.50;;
74535;SDS011;63013;51.104;-115.370;2022-09-01T01:12:06;2.70;;;1.70;;
74535;SDS011;63013;51.104;-115.370;2022-09-01T01:14:38;2.00;;;1.60;;
74535;SDS011;63013;51.104;-115.370;2022-09-01T01:17:06;2.50;;;1.70;;
74535;SDS011;63013;51.104;-115.370;2022-09-01T01:20:06;1.70;;;1.40;;
74535;SDS011;63013;51.104;-115.370;2022-09-01T01:23:23;1.70;;;1.50;;
74535;SDS011;63013;51.104;-115.370;2022-09-01T01:26:03;2.50;;;1.60;;
74535;SDS011;63013;51.104;-115.370;2022-09-01T01:28:43;1.60;;;1.50;;
74535;SDS011;63013;51.104;-115.370;2022-09-01T01:31:14;2.00;;;1.50;;
74535;SDS011;63013;51.104;-115.370;2022-09-01T01:34:00;1.60;;;1.50;;
74535;SDS011;63013;51.104;-115.370;2022-09-01T01:36:33;2.10;;;1.70;;
74535;SDS011;63013;51.104;-115.370;2022-09-01T01:39:10;3.00;;;1.80;;
74535;SDS011;63013;51.104;-115.370;2022-09-01T01:41:40;2.40;;;1.80;;
74535;SDS011;63013;51.104;-115.370;2022-09-01T01:44:19;1.80;;;1.70;;
74535;SDS011;63013;51.104;-115.370;2022-09-01T01:46:55;1.60;;;1.50;;
74535;SDS011;63013;51.104;-115.370;2022-09-01T01:49:31;2.10;;;1.70;;
74535;SDS011;63013;51.104;-115.370;2022-09-01T01:51:59;2.90;;;1.40;;
74535;SDS011;63013;51.104;-115.370;2022-09-01T01:54:27;2.00;;;1.90;;
74535;SDS011;63013;51.104;-115.370;2022-09-01T01:57:06;2.10;;;1.60;;
74535;SDS011;63013;51.104;-115.370;2022-09-01T01:59:36;1.70;;;1.40;;
74535;SDS011;63013;51.104;-115.370;2022-09-01T02:02:25;2.80;;;1.70;;
74535;SDS011;63013;51.104;-115.370;2022-09-01T02:04:52;2.00;;;1.40;;
74535;SDS011;63013;51.104;-115.370;2022-09-01T02:07:50;2.30;;;1.50;;
74535;SDS011;63013;51.104;-115.370;2022-09-01T02:10:43;2.20;;;1.50;;
74535;SDS011;63013;51.104;-115.370;2022-09-01T02:13:15;3.40;;;1.70;;
74535;SDS011;63013;51.104;-115.370;2022-09-01T02:15:47;3.80;;;2.10;;
74535;SDS011;63013;51.104;-115.370;2022-09-01T02:18:21;2.70;;;1.70;;
74535;SDS011;63013;51.104;-115.370;2022-09-01T02:20:53;3.60;;;1.90;;
74535;SDS011;63013;51.104;-115.370;2022-09-01T02:23:22;2.30;;;1.70;;
74535;SDS011;63013;51.104;-115.370;2022-09-01T02:25:55;4.40;;;1.60;;
74535;SDS011;63013;51.104;-115.370;2022-09-01T02:28:28;2.40;;;1.80;;
74535;SDS011;63013;51.104;-115.370;2022-09-01T02:30:59;4.10;;;1.70;;
74535;SDS011;63013;51.104;-115.370;2022-09-01T02:33:30;3.00;;;1.90;;
74535;SDS011;63013;51.104;-115.370;2022-09-01T02:36:03;3.80;;;1.90;;
74535;SDS011;63013;51.104;-115.370;2022-09-01T02:38:32;4.40;;;2.00;;
74535;SDS011;63013;51.104;-115.370;2022-09-01T02:41:01;3.00;;;2.00;;
74535;SDS011;63013;51.104;-115.370;2022-09-01T02:43:29;3.40;;;2.00;;
74535;SDS011;63013;51.104;-115.370;2022-09-01T02:45:58;3.30;;;2.10;;
74535;SDS011;63013;51.104;-115.370;2022-09-01T02:48:30;2.80;;;1.80;;
74535;SDS011;63013;51.104;-115.370;2022-09-01T02:51:12;5.00;;;1.70;;
74535;SDS011;63013;51.104;-115.370;2022-09-01T02:53:43;3.70;;;1.90;;
74535;SDS011;63013;51.104;-115.370;2022-09-01T02:56:13;3.90;;;2.00;;
74535;SDS011;63013;51.104;-115.370;2022-09-01T02:58:43;3.20;;;1.90;;
74535;SDS011;63013;51.104;-115.370;2022-09-01T03:04:05;5.30;;;2.00;;
74535;SDS011;63013;51.104;-115.370;2022-09-01T03:06:40;2.80;;;1.90;;
74535;SDS011;63013;51.104;-115.370;2022-09-01T03:09:11;4.30;;;1.90;;
74535;SDS011;63013;51.104;-115.370;2022-09-01T03:11:47;2.50;;;1.80;;
74535;SDS011;63013;51.104;-115.370;2022-09-01T03:14:16;4.10;;;2.00;;
74535;SDS011;63013;51.104;-115.370;2022-09-01T03:16:44;2.90;;;1.90;;
74535;SDS011;63013;51.104;-115.370;2022-09-01T03:19:11;3.10;;;2.00;;
74535;SDS011;63013;51.104;-115.370;2022-09-01T03:21:42;3.20;;;1.70;;
74535;SDS011;63013;51.104;-115.370;2022-09-01T03:24:15;5.00;;;1.80;;
74535;SDS011;63013;51.104;-115.370;2022-09-01T03:26:44;3.20;;;1.70;;
74535;SDS011;63013;51.104;-115.370;2022-09-01T03:29:15;3.60;;;1.70;;
74535;SDS011;63013;51.104;-115.370;2022-09-01T03:31:42;3.60;;;1.80;;
74535;SDS011;63013;51.104;-115.370;2022-09-01T03:34:09;4.80;;;2.00;;
74535;SDS011;63013;51.104;-115.370;2022-09-01T03:36:37;3.90;;;2.00;;
74535;SDS011;63013;51.104;-115.370;2022-09-01T03:39:05;2.60;;;1.80;;
74535;SDS011;63013;51.104;-115.370;2022-09-01T03:41:34;2.90;;;1.70;;
74535;SDS011;63013;51.104;-115.370;2022-09-01T03:44:03;3.80;;;2.00;;
74535;SDS011;63013;51.104;-115.370;2022-09-01T03:46:30;3.50;;;2.00;;
74535;SDS011;63013;51.104;-115.370;2022-09-01T03:48:59;4.90;;;1.80;;
74535;SDS011;63013;51.104;-115.370;2022-09-01T03:51:31;2.40;;;1.90;;
74535;SDS011;63013;51.104;-115.370;2022-09-01T03:54:06;4.80;;;2.00;;
74535;SDS011;63013;51.104;-115.370;2022-09-01T03:56:33;2.80;;;1.90;;
74535;SDS011;63013;51.104;-115.370;2022-09-01T03:59:01;4.30;;;1.80;;
74535;SDS011;63013;51.104;-115.370;2022-09-01T04:01:29;3.10;;;1.90;;
74535;SDS011;63013;51.104;-115.370;2022-09-01T04:04:03;3.00;;;1.80;;
74535;SDS011;63013;51.104;-115.370;2022-09-01T04:06:31;3.70;;;2.10;;
74535;SDS011;63013;51.104;-115.370;2022-09-01T04:08:58;3.00;;;2.00;;
74535;SDS011;63013;51.104;-115.370;2022-09-01T04:11:27;3.00;;;2.00;;
74535;SDS011;63013;51.104;-115.370;2022-09-01T04:13:55;4.00;;;1.80;;
74535;SDS011;63013;51.104;-115.370;2022-09-01T04:16:25;3.40;;;2.00;;
74535;SDS011;63013;51.104;-115.370;2022-09-01T04:19:16;3.60;;;2.00;;
74535;SDS011;63013;51.104;-115.370;2022-09-01T04:21:57;3.00;;;1.80;;
74535;SDS011;63013;51.104;-115.370;2022-09-01T04:24:27;3.40;;;1.90;;
74535;SDS011;63013;51.104;-115.370;2022-09-01T04:26:58;4.60;;;2.10;;
74535;SDS011;63013;51.104;-115.370;2022-09-01T04:29:27;3.30;;;2.00;;
74535;SDS011;63013;51.104;-115.370;2022-09-01T04:32:02;3.30;;;1.90;;
74535;SDS011;63013;51.104;-115.370;2022-09-01T04:34:34;3.50;;;1.80;;
74535;SDS011;63013;51.104;-115.370;2022-09-01T04:37:07;3.10;;;2.10;;
74535;SDS011;63013;51.104;-115.370;2022-09-01T04:39:38;3.70;;;2.00;;
74535;SDS011;63013;51.104;-115.370;2022-09-01T04:42:13;4.20;;;1.80;;
74535;SDS011;63013;51.104;-115.370;2022-09-01T04:44:41;4.30;;;2.10;;
74535;SDS011;63013;51.104;-115.370;2022-09-01T04:47:10;4.30;;;2.00;;
74535;SDS011;63013;51.104;-115.370;2022-09-01T04:49:45;3.90;;;2.10;;
74535;SDS011;63013;51.104;-115.370;2022-09-01T04:52:15;2.80;;;1.80;;
74535;SDS011;63013;51.104;-115.370;2022-09-01T04:54:42;3.40;;;1.80;;
74535;SDS011;63013;51.104;-115.370;2022-09-01T04:57:10;3.40;;;1.70;;
74535;SDS011;63013;51.104;-115.370;2022-09-01T04:59:37;4.90;;;2.00;;
74535;SDS011;63013;51.104;-115.370;2022-09-01T05:02:04;4.60;;;2.10;;
74535;SDS011;63013;51.104;-115.370;2022-09-01T05:04:55;1.90;;;1.50;;
74535;SDS011;63013;51.104;-115.370;2022-09-01T05:07:23;3.90;;;2.00;;
74535;SDS011;63013;51.104;-115.370;2022-09-01T05:09:55;4.20;;;1.90;;
74535;SDS011;63013;51.104;-115.370;2022-09-01T05:12:22;3.20;;;1.80;;
74535;SDS011;63013;51.104;-115.370;2022-09-01T05:14:49;2.80;;;1.80;;
74535;SDS011;63013;51.104;-115.370;2022-09-01T05:17:23;4.00;;;2.00;;
74535;SDS011;63013;51.104;-115.370;2022-09-01T05:19:54;3.60;;;1.90;;
74535;SDS011;63013;51.104;-115.370;2022-09-01T05:22:22;4.90;;;2.20;;
74535;SDS011;63013;51.104;-115.370;2022-09-01T05:24:52;2.80;;;1.70;;
74535;SDS011;63013;51.104;-115.370;2022-09-01T05:27:19;3.00;;;1.90;;
74535;SDS011;63013;51.104;-115.370;2022-09-01T05:29:47;4.00;;;1.80;;
74535;SDS011;63013;51.104;-115.370;2022-09-01T05:32:15;4.20;;;1.80;;
74535;SDS011;63013;51.104;-115.370;2022-09-01T05:34:42;4.00;;;1.60;;
74535;SDS011;63013;51.104;-115.370;2022-09-01T05:37:11;3.20;;;1.90;;
74535;SDS011;63013;51.104;-115.370;2022-09-01T05:39:42;3.80;;;1.80;;
74535;SDS011;63013;51.104;-115.370;2022-09-01T05:42:09;3.70;;;1.80;;
74535;SDS011;63013;51.104;-115.370;2022-09-01T05:44:38;4.50;;;2.20;;
74535;SDS011;63013;51.104;-115.370;2022-09-01T05:47:10;3.70;;;1.80;;
74535;SDS011;63013;51.104;-115.370;2022-09-01T05:49:38;3.50;;;1.70;;
74535;SDS011;63013;51.104;-115.370;2022-09-01T05:52:09;2.80;;;1.90;;
74535;SDS011;63013;51.104;-115.370;2022-09-01T05:54:36;2.30;;;1.80;;
74535;SDS011;63013;51.104;-115.370;2022-09-01T05:57:03;2.60;;;2.00;;
74535;SDS011;63013;51.104;-115.370;2022-09-01T05:59:32;3.10;;;1.80;;
74535;SDS011;63013;51.104;-115.370;2022-09-01T06:02:00;3.00;;;1.50;;
74535;SDS011;63013;51.104;-115.370;2022-09-01T06:04:57;2.30;;;1.50;;
74535;SDS011;63013;51.104;-115.370;2022-09-01T06:07:25;1.90;;;1.50;;
74535;SDS011;63013;51.104;-115.370;2022-09-01T06:09:53;2.80;;;1.90;;
74535;SDS011;63013;51.104;-115.370;2022-09-01T06:12:24;3.00;;;1.70;;
74535;SDS011;63013;51.104;-115.370;2022-09-01T06:14:54;3.20;;;1.50;;
74535;SDS011;63013;51.104;-115.370;2022-09-01T06:17:24;2.40;;;1.80;;
74535;SDS011;63013;51.104;-115.370;2022-09-01T06:19:54;1.90;;;1.70;;
74535;SDS011;63013;51.104;-115.370;2022-09-01T06:22:23;3.30;;;1.80;;
74535;SDS011;63013;51.104;-115.370;2022-09-01T06:24:52;2.20;;;1.60;;
74535;SDS011;63013;51.104;-115.370;2022-09-01T06:27:24;2.00;;;1.50;;
74535;SDS011;63013;51.104;-115.370;2022-09-01T06:29:52;3.40;;;2.20;;
74535;SDS011;63013;51.104;-115.370;2022-09-01T06:32:19;3.80;;;1.80;;
74535;SDS011;63013;51.104;-115.370;2022-09-01T06:34:46;2.10;;;1.80;;
74535;SDS011;63013;51.104;-115.370;2022-09-01T06:37:17;2.70;;;1.90;;
74535;SDS011;63013;51.104;-115.370;2022-09-01T06:39:48;2.40;;;1.70;;
74535;SDS011;63013;51.104;-115.370;2022-09-01T06:42:15;2.60;;;1.50;;
74535;SDS011;63013;51.104;-115.370;2022-09-01T06:44:42;2.10;;;1.60;;
74535;SDS011;63013;51.104;-115.370;2022-09-01T06:47:10;3.00;;;1.70;;
74535;SDS011;63013;51.104;-115.370;2022-09-01T06:49:38;2.40;;;1.70;;
74535;SDS011;63013;51.104;-115.370;2022-09-01T06:52:05;2.50;;;1.80;;
74535;SDS011;63013;51.104;-115.370;2022-09-01T06:54:33;2.90;;;1.70;;
74535;SDS011;63013;51.104;-115.370;2022-09-01T06:57:01;3.00;;;1.60;;
74535;SDS011;63013;51.104;-115.370;2022-09-01T06:59:30;3.20;;;1.80;;
74535;SDS011;63013;51.104;-115.370;2022-09-01T07:02:01;2.80;;;1.80;;
74535;SDS011;63013;51.104;-115.370;2022-09-01T07:04:29;2.60;;;1.70;;
74535;SDS011;63013;51.104;-115.370;2022-09-01T07:06:57;3.30;;;1.60;;
74535;SDS011;63013;51.104;-115.370;2022-09-01T07:09:25;2.70;;;1.80;;
74535;SDS011;63013;51.104;-115.370;2022-09-01T07:11:52;2.40;;;1.70;;
74535;SDS011;63013;51.104;-115.370;2022-09-01T07:14:20;2.70;;;1.70;;
74535;SDS011;63013;51.104;-115.370;2022-09-01T07:16:51;2.50;;;1.60;;
74535;SDS011;63013;51.104;-115.370;2022-09-01T07:19:18;3.50;;;1.60;;
74535;SDS011;63013;51.104;-115.370;2022-09-01T07:21:58;2.50;;;1.80;;
74535;SDS011;63013;51.104;-115.370;2022-09-01T07:24:25;2.90;;;1.70;;
74535;SDS011;63013;51.104;-115.370;2022-09-01T07:26:53;2.70;;;1.60;;
74535;SDS011;63013;51.104;-115.370;2022-09-01T07:29:20;2.50;;;1.70;;
74535;SDS011;63013;51.104;-115.370;2022-09-01T07:31:51;2.80;;;1.70;;
74535;SDS011;63013;51.104;-115.370;2022-09-01T07:34:20;3.10;;;1.70;;
74535;SDS011;63013;51.104;-115.370;2022-09-01T07:36:47;2.00;;;1.40;;
74535;SDS011;63013;51.104;-115.370;2022-09-01T07:39:32;2.10;;;1.70;;
74535;SDS011;63013;51.104;-115.370;2022-09-01T07:42:11;2.20;;;1.60;;
74535;SDS011;63013;51.104;-115.370;2022-09-01T07:44:42;2.40;;;1.70;;
74535;SDS011;63013;51.104;-115.370;2022-09-01T07:47:10;2.10;;;1.70;;
74535;SDS011;63013;51.104;-115.370;2022-09-01T07:49:39;3.00;;;1.50;;
74535;SDS011;63013;51.104;-115.370;2022-09-01T07:52:07;2.00;;;1.40;;
74535;SDS011;63013;51.104;-115.370;2022-09-01T07:54:34;2.20;;;1.50;;
74535;SDS011;63013;51.104;-115.370;2022-09-01T07:57:02;2.10;;;1.40;;
74535;SDS011;63013;51.104;-115.370;2022-09-01T07:59:30;3.20;;;1.70;;
74535;SDS011;63013;51.104;-115.370;2022-09-01T08:02:01;2.60;;;1.60;;
74535;SDS011;63013;51.104;-115.370;2022-09-01T08:04:31;2.30;;;1.70;;
74535;SDS011;63013;51.104;-115.370;2022-09-01T08:07:09;2.30;;;1.60;;
74535;SDS011;63013;51.104;-115.370;2022-09-01T08:09:37;2.40;;;1.70;;
74535;SDS011;63013;51.104;-115.370;2022-09-01T08:12:05;1.90;;;1.70;;
74535;SDS011;63013;51.104;-115.370;2022-09-01T08:14:36;3.00;;;1.80;;
74535;SDS011;63013;51.104;-115.370;2022-09-01T08:17:18;2.20;;;1.30;;
74535;SDS011;63013;51.104;-115.370;2022-09-01T08:19:46;2.40;;;1.40;;
74535;SDS011;63013;51.104;-115.370;2022-09-01T08:22:23;2.20;;;1.50;;
74535;SDS011;63013;51.104;-115.370;2022-09-01T08:24:51;2.90;;;1.60;;
74535;SDS011;63013;51.104;-115.370;2022-09-01T08:27:21;2.10;;;1.50;;
74535;SDS011;63013;51.104;-115.370;2022-09-01T08:29:51;1.50;;;1.40;;
74535;SDS011;63013;51.104;-115.370;2022-09-01T08:35:27;2.30;;;1.80;;
74535;SDS011;63013;51.104;-115.370;2022-09-01T08:38:02;2.50;;;1.90;;
74535;SDS011;63013;51.104;-115.370;2022-09-01T08:40:35;2.40;;;1.70;;
74535;SDS011;63013;51.104;-115.370;2022-09-01T08:46:22;2.10;;;1.30;;
74535;SDS011;63013;51.104;-115.370;2022-09-01T08:51:51;2.10;;;1.70;;
74535;SDS011;63013;51.104;-115.370;2022-09-01T08:54:48;1.50;;;1.30;;
74535;SDS011;63013;51.104;-115.370;2022-09-01T08:57:51;2.10;;;1.20;;
74535;SDS011;63013;51.104;-115.370;2022-09-01T09:00:27;2.10;;;1.40;;
74535;SDS011;63013;51.104;-115.370;2022-09-01T09:03:31;1.90;;;1.40;;
74535;SDS011;63013;51.104;-115.370;2022-09-01T09:09:11;2.50;;;1.50;;
74535;SDS011;63013;51.104;-115.370;2022-09-01T09:15:23;2.20;;;1.70;;
74535;SDS011;63013;51.104;-115.370;2022-09-01T09:18:47;1.80;;;1.30;;
74535;SDS011;63013;51.104;-115.370;2022-09-01T09:21:50;1.80;;;1.40;;
74535;SDS011;63013;51.104;-115.370;2022-09-01T09:24:46;1.80;;;1.50;;
74535;SDS011;63013;51.104;-115.370;2022-09-01T09:27:48;1.90;;;1.10;;
74535;SDS011;63013;51.104;-115.370;2022-09-01T09:30:26;1.80;;;1.40;;
74535;SDS011;63013;51.104;-115.370;2022-09-01T09:33:04;2.00;;;1.50;;
74535;SDS011;63013;51.104;-115.370;2022-09-01T09:38:23;2.10;;;1.40;;
74535;SDS011;63013;51.104;-115.370;2022-09-01T09:41:17;2.30;;;1.60;;
74535;SDS011;63013;51.104;-115.370;2022-09-01T09:47:06;1.60;;;1.50;;
74535;SDS011;63013;51.104;-115.370;2022-09-01T09:49:39;1.70;;;1.30;;
74535;SDS011;63013;51.104;-115.370;2022-09-01T09:52:16;2.00;;;1.30;;
74535;SDS011;63013;51.104;-115.370;2022-09-01T09:55:03;1.90;;;1.40;;
74535;SDS011;63013;51.104;-115.370;2022-09-01T09:57:47;1.90;;;1.60;;
74535;SDS011;63013;51.104;-115.370;2022-09-01T10:00:31;1.80;;;1.30;;
74535;SDS011;63013;51.104;-115.370;2022-09-01T10:03:03;1.90;;;1.40;;
74535;SDS011;63013;51.104;-115.370;2022-09-01T10:05:51;1.90;;;1.40;;
74535;SDS011;63013;51.104;-115.370;2022-09-01T10:10:59;1.50;;;1.30;;
74535;SDS011;63013;51.104;-115.370;2022-09-01T10:13:31;2.10;;;1.60;;
74535;SDS011;63013;51.104;-115.370;2022-09-01T10:16:03;2.30;;;1.30;;
74535;SDS011;63013;51.104;-115.370;2022-09-01T10:18:52;3.40;;;1.50;;
74535;SDS011;63013;51.104;-115.370;2022-09-01T10:21:34;1.70;;;1.30;;
74535;SDS011;63013;51.104;-115.370;2022-09-01T10:24:34;1.70;;;1.40;;
74535;SDS011;63013;51.104;-115.370;2022-09-01T10:27:11;1.90;;;1.20;;
74535;SDS011;63013;51.104;-115.370;2022-09-01T10:30:07;1.70;;;1.20;;
74535;SDS011;63013;51.104;-115.370;2022-09-01T10:32:45;1.50;;;1.30;;
74535;SDS011;63013;51.104;-115.370;2022-09-01T10:35:32;1.50;;;1.30;;
74535;SDS011;63013;51.104;-115.370;2022-09-01T10:38:25;1.90;;;1.40;;
74535;SDS011;63013;51.104;-115.370;2022-09-01T10:40:57;2.00;;;1.30;;
74535;SDS011;63013;51.104;-115.370;2022-09-01T10:48:50;2.00;;;1.60;;
74535;SDS011;63013;51.104;-115.370;2022-09-01T10:53:55;1.50;;;1.30;;
74535;SDS011;63013;51.104;-115.370;2022-09-01T10:57:01;1.60;;;1.40;;
74535;SDS011;63013;51.104;-115.370;2022-09-01T10:59:29;1.40;;;1.30;;
74535;SDS011;63013;51.104;-115.370;2022-09-01T11:02:22;2.10;;;1.40;;
74535;SDS011;63013;51.104;-115.370;2022-09-01T11:13:58;1.60;;;1.40;;
74535;SDS011;63013;51.104;-115.370;2022-09-01T11:23:03;1.70;;;1.30;;
74535;SDS011;63013;51.104;-115.370;2022-09-01T11:25:45;2.40;;;1.20;;
74535;SDS011;63013;51.104;-115.370;2022-09-01T11:33:55;1.50;;;1.30;;
74535;SDS011;63013;51.104;-115.370;2022-09-01T11:37:10;1.50;;;1.20;;
74535;SDS011;63013;51.104;-115.370;2022-09-01T11:39:45;1.70;;;1.30;;
74535;SDS011;63013;51.104;-115.370;2022-09-01T11:45:04;1.70;;;1.20;;
74535;SDS011;63013;51.104;-115.370;2022-09-01T11:47:47;2.30;;;1.50;;
74535;SDS011;63013;51.104;-115.370;2022-09-01T11:50:29;1.30;;;1.10;;
74535;SDS011;63013;51.104;-115.370;2022-09-01T11:53:11;1.90;;;1.50;;
74535;SDS011;63013;51.104;-115.370;2022-09-01T11:55:44;1.70;;;1.30;;
74535;SDS011;63013;51.104;-115.370;2022-09-01T12:01:32;1.90;;;1.00;;
74535;SDS011;63013;51.104;-115.370;2022-09-01T12:04:21;1.30;;;1.20;;
74535;SDS011;63013;51.104;-115.370;2022-09-01T12:06:59;1.90;;;1.40;;
74535;SDS011;63013;51.104;-115.370;2022-09-01T12:09:42;1.70;;;1.20;;
74535;SDS011;63013;51.104;-115.370;2022-09-01T12:12:35;1.40;;;1.30;;
74535;SDS011;63013;51.104;-115.370;2022-09-01T12:15:20;1.50;;;1.20;;
74535;SDS011;63013;51.104;-115.370;2022-09-01T12:17:50;1.90;;;1.30;;
74535;SDS011;63013;51.104;-115.370;2022-09-01T12:20:33;1.70;;;1.40;;
74535;SDS011;63013;51.104;-115.370;2022-09-01T12:23:26;1.90;;;1.20;;
74535;SDS011;63013;51.104;-115.370;2022-09-01T12:26:29;1.90;;;1.40;;
74535;SDS011;63013;51.104;-115.370;2022-09-01T12:28:56;2.00;;;1.10;;
74535;SDS011;63013;51.104;-115.370;2022-09-01T12:31:25;1.70;;;1.30;;
74535;SDS011;63013;51.104;-115.370;2022-09-01T12:33:55;1.50;;;1.20;;
74535;SDS011;63013;51.104;-115.370;2022-09-01T12:36:28;2.70;;;1.30;;
74535;SDS011;63013;51.104;-115.370;2022-09-01T12:39:23;1.30;;;1.20;;
74535;SDS011;63013;51.104;-115.370;2022-09-01T12:47:53;1.60;;;1.20;;
74535;SDS011;63013;51.104;-115.370;2022-09-01T12:52:56;1.30;;;1.10;;
74535;SDS011;63013;51.104;-115.370;2022-09-01T12:55:29;1.20;;;1.10;;
74535;SDS011;63013;51.104;-115.370;2022-09-01T12:58:03;1.30;;;1.00;;
74535;SDS011;63013;51.104;-115.370;2022-09-01T13:00:53;1.70;;;1.20;;
74535;SDS011;63013;51.104;-115.370;2022-09-01T13:07:11;2.30;;;1.50;;
74535;SDS011;63013;51.104;-115.370;2022-09-01T13:09:39;1.70;;;1.50;;
74535;SDS011;63013;51.104;-115.370;2022-09-01T13:12:20;1.70;;;1.40;;
74535;SDS011;63013;51.104;-115.370;2022-09-01T13:14:47;3.00;;;1.90;;
74535;SDS011;63013;51.104;-115.370;2022-09-01T13:17:14;2.80;;;2.10;;
74535;SDS011;63013;51.104;-115.370;2022-09-01T13:19:51;4.30;;;2.10;;
74535;SDS011;63013;51.104;-115.370;2022-09-01T13:22:18;5.50;;;2.40;;
74535;SDS011;63013;51.104;-115.370;2022-09-01T13:24:45;5.20;;;2.70;;
74535;SDS011;63013;51.104;-115.370;2022-09-01T13:27:12;5.10;;;2.70;;
74535;SDS011;63013;51.104;-115.370;2022-09-01T13:29:39;4.30;;;2.90;;
74535;SDS011;63013;51.104;-115.370;2022-09-01T13:32:07;4.90;;;2.90;;
74535;SDS011;63013;51.104;-115.370;2022-09-01T13:34:34;7.00;;;2.90;;
74535;SDS011;63013;51.104;-115.370;2022-09-01T13:37:01;5.60;;;2.90;;
74535;SDS011;63013;51.104;-115.370;2022-09-01T13:39:28;5.50;;;2.80;;
74535;SDS011;63013;51.104;-115.370;2022-09-01T13:41:55;4.30;;;3.40;;
74535;SDS011;63013;51.104;-115.370;2022-09-01T13:44:22;6.10;;;3.40;;
74535;SDS011;63013;51.104;-115.370;2022-09-01T13:46:49;8.50;;;3.40;;
74535;SDS011;63013;51.104;-115.370;2022-09-01T13:49:16;4.30;;;3.10;;
74535;SDS011;63013;51.104;-115.370;2022-09-01T13:51:52;8.10;;;3.30;;
74535;SDS011;63013;51.104;-115.370;2022-09-01T13:54:20;6.40;;;3.30;;
74535;SDS011;63013;51.104;-115.370;2022-09-01T13:56:47;7.10;;;3.30;;
74535;SDS011;63013;51.104;-115.370;2022-09-01T13:59:14;5.10;;;3.70;;
74535;SDS011;63013;51.104;-115.370;2022-09-01T14:01:41;8.40;;;3.30;;
74535;SDS011;63013;51.104;-115.370;2022-09-01T14:04:09;6.60;;;3.20;;
74535;SDS011;63013;51.104;-115.370;2022-09-01T14:06:40;7.10;;;3.50;;
74535;SDS011;63013;51.104;-115.370;2022-09-01T14:09:12;5.20;;;3.50;;
74535;SDS011;63013;51.104;-115.370;2022-09-01T14:11:40;7.40;;;3.70;;
74535;SDS011;63013;51.104;-115.370;2022-09-01T14:14:07;7.00;;;3.30;;
74535;SDS011;63013;51.104;-115.370;2022-09-01T14:16:34;6.70;;;3.70;;
74535;SDS011;63013;51.104;-115.370;2022-09-01T14:19:02;6.90;;;3.70;;
74535;SDS011;63013;51.104;-115.370;2022-09-01T14:21:29;4.40;;;3.50;;
74535;SDS011;63013;51.104;-115.370;2022-09-01T14:23:56;8.80;;;3.60;;
74535;SDS011;63013;51.104;-115.370;2022-09-01T14:26:24;4.80;;;3.80;;
74535;SDS011;63013;51.104;-115.370;2022-09-01T14:28:52;8.10;;;3.60;;
74535;SDS011;63013;51.104;-115.370;2022-09-01T14:31:19;6.80;;;3.80;;
74535;SDS011;63013;51.104;-115.370;2022-09-01T14:33:47;8.40;;;3.60;;
74535;SDS011;63013;51.104;-115.370;2022-09-01T14:36:21;8.10;;;3.70;;
74535;SDS011;63013;51.104;-115.370;2022-09-01T14:38:50;10.00;;;3.80;;
74535;SDS011;63013;51.104;-115.370;2022-09-01T14:41:20;8.50;;;4.00;;
74535;SDS011;63013;51.104;-115.370;2022-09-01T14:43:54;5.30;;;3.70;;
74535;SDS011;63013;51.104;-115.370;2022-09-01T14:46:24;6.60;;;3.60;;
74535;SDS011;63013;51.104;-115.370;2022-09-01T14:48:51;5.30;;;3.80;;
74535;SDS011;63013;51.104;-115.370;2022-09-01T14:51:22;7.00;;;3.80;;
74535;SDS011;63013;51.104;-115.370;2022-09-01T14:53:53;6.60;;;3.80;;
74535;SDS011;63013;51.104;-115.370;2022-09-01T14:56:21;6.30;;;3.40;;
74535;SDS011;63013;51.104;-115.370;2022-09-01T14:58:50;5.00;;;3.70;;
74535;SDS011;63013;51.104;-115.370;2022-09-01T15:01:24;8.10;;;3.70;;
74535;SDS011;63013;51.104;-115.370;2022-09-01T15:03:53;6.40;;;3.70;;
74535;SDS011;63013;51.104;-115.370;2022-09-01T15:06:22;5.60;;;3.60;;
74535;SDS011;63013;51.104;-115.370;2022-09-01T15:08:49;6.90;;;4.20;;
74535;SDS011;63013;51.104;-115.370;2022-09-01T15:11:21;4.70;;;3.80;;
74535;SDS011;63013;51.104;-115.370;2022-09-01T15:13:49;9.40;;;4.10;;
74535;SDS011;63013;51.104;-115.370;2022-09-01T15:16:20;5.20;;;3.50;;
74535;SDS011;63013;51.104;-115.370;2022-09-01T15:18:49;7.50;;;4.20;;
74535;SDS011;63013;51.104;-115.370;2022-09-01T15:21:29;7.40;;;3.80;;
74535;SDS011;63013;51.104;-115.370;2022-09-01T15:24:00;6.10;;;4.00;;
74535;SDS011;63013;51.104;-115.370;2022-09-01T15:26:28;8.60;;;3.80;;
74535;SDS011;63013;51.104;-115.370;2022-09-01T15:28:56;7.60;;;4.00;;
74535;SDS011;63013;51.104;-115.370;2022-09-01T15:31:25;6.80;;;3.80;;
74535;SDS011;63013;51.104;-115.370;2022-09-01T15:33:55;8.20;;;4.70;;
74535;SDS011;63013;51.104;-115.370;2022-09-01T15:36:25;8.20;;;4.60;;
74535;SDS011;63013;51.104;-115.370;2022-09-01T15:38:54;6.90;;;4.40;;
74535;SDS011;63013;51.104;-115.370;2022-09-01T15:41:29;5.80;;;4.00;;
74535;SDS011;63013;51.104;-115.370;2022-09-01T15:43:58;8.20;;;4.50;;
74535;SDS011;63013;51.104;-115.370;2022-09-01T15:46:26;6.20;;;4.40;;
74535;SDS011;63013;51.104;-115.370;2022-09-01T15:49:02;5.10;;;4.30;;
74535;SDS011;63013;51.104;-115.370;2022-09-01T15:51:39;6.70;;;4.60;;
74535;SDS011;63013;51.104;-115.370;2022-09-01T15:54:16;6.40;;;4.60;;
74535;SDS011;63013;51.104;-115.370;2022-09-01T15:56:45;7.60;;;4.50;;
74535;SDS011;63013;51.104;-115.370;2022-09-01T15:59:14;6.40;;;4.60;;
74535;SDS011;63013;51.104;-115.370;2022-09-01T16:01:44;8.10;;;4.60;;